Time,TemperatureF,DewpointF,PressureIn,WindDirection,WindDirectionDegrees,WindSpeedMPH,WindSpeedGustMPH,Humidity,HourlyPrecipIn,Conditions,Clouds,dailyrainin,SoftwareType,DateUTC
2013-06-19 00:01:00,55.8,46.9,30.04,East,90,1.6,6.7,72,0.00,,,0.00,WUHU216HW,2013-06-19 05:01:00,
2013-06-19 00:06:00,55.6,46.7,30.04,ESE,113,3.1,7.4,72,0.00,,,0.00,WUHU216HW,2013-06-19 05:06:00,
2013-06-19 00:11:00,55.4,46.6,30.04,NNE,23,2.5,7.4,72,0.00,,,0.00,WUHU216HW,2013-06-19 05:11:00,
2013-06-19 00:16:00,55.3,46.5,30.04,NE,45,2.2,6.9,72,0.00,,,0.00,WUHU216HW,2013-06-19 05:16:00,
2013-06-19 00:21:00,55.1,46.6,30.05,ENE,68,2.0,3.4,73,0.00,,,0.00,WUHU216HW,2013-06-19 05:21:00,
2013-06-19 00:26:00,54.9,46.5,30.05,NE,45,4.5,5.8,73,0.00,,,0.00,WUHU216HW,2013-06-19 05:26:00,
2013-06-19 00:31:00,54.9,46.5,30.04,NE,45,4.3,5.8,73,0.00,,,0.00,WUHU216HW,2013-06-19 05:31:00,
2013-06-19 00:36:00,54.7,46.3,30.05,NE,45,2.5,5.4,73,0.00,,,0.00,WUHU216HW,2013-06-19 05:36:00,
2013-06-19 00:41:00,54.5,46.1,30.05,ENE,68,1.8,5.4,73,0.00,,,0.00,WUHU216HW,2013-06-19 05:41:00,
2013-06-19 00:46:00,54.4,45.9,30.05,East,90,2.5,3.6,73,0.00,,,0.00,WUHU216HW,2013-06-19 05:46:00,
2013-06-19 00:51:00,54.0,45.6,30.05,ENE,68,2.2,3.6,73,0.00,,,0.00,WUHU216HW,2013-06-19 05:51:00,
2013-06-19 00:56:00,53.8,45.7,30.05,ENE,68,1.3,3.1,74,0.00,,,0.00,WUHU216HW,2013-06-19 05:56:00,
2013-06-19 01:01:00,53.6,45.5,30.05,NE,45,1.1,3.1,74,0.00,,,0.00,WUHU216HW,2013-06-19 06:01:00,
2013-06-19 01:06:00,53.6,45.5,30.05,NNE,23,0.7,1.6,74,0.00,,,0.00,WUHU216HW,2013-06-19 06:06:00,
2013-06-19 01:11:00,53.5,45.0,30.05,NNE,23,0.9,1.6,73,0.00,,,0.00,WUHU216HW,2013-06-19 06:11:00,
2013-06-19 01:16:00,52.9,44.2,30.05,NNE,23,0.4,0.9,72,0.00,,,0.00,WUHU216HW,2013-06-19 06:16:00,
2013-06-19 01:21:00,52.4,43.7,30.05,NNE,23,0.0,0.9,72,0.00,,,0.00,WUHU216HW,2013-06-19 06:21:00,
2013-06-19 01:26:00,52.0,43.3,30.05,NNE,23,0.0,0.4,72,0.00,,,0.00,WUHU216HW,2013-06-19 06:26:00,
2013-06-19 01:31:00,51.8,44.2,30.05,NNE,23,0.0,0.0,75,0.00,,,0.00,WUHU216HW,2013-06-19 06:31:00,
2013-06-19 01:36:00,51.5,43.8,30.05,NNE,23,0.0,0.9,75,0.00,,,0.00,WUHU216HW,2013-06-19 06:36:00,
2013-06-19 01:41:00,51.1,43.1,30.05,NNE,23,0.0,0.9,74,0.00,,,0.00,WUHU216HW,2013-06-19 06:41:00,
2013-06-19 01:46:00,50.8,42.8,30.05,NNE,23,1.1,1.3,74,0.00,,,0.00,WUHU216HW,2013-06-19 06:46:00,
2013-06-19 01:51:00,50.6,42.9,30.05,North,0,0.4,1.6,75,0.00,,,0.00,WUHU216HW,2013-06-19 06:51:00,
2013-06-19 01:56:00,50.8,43.5,30.05,North,0,0.0,1.6,76,0.00,,,0.00,WUHU216HW,2013-06-19 06:56:00,
2013-06-19 02:01:00,50.9,44.0,30.05,NNW,338,0.0,1.1,77,0.00,,,0.00,WUHU216HW,2013-06-19 07:01:00,
2013-06-19 02:06:00,51.3,44.0,30.05,NNW,338,0.4,1.1,76,0.00,,,0.00,WUHU216HW,2013-06-19 07:06:00,
2013-06-19 02:10:00,50.9,43.3,30.06,NNW,338,0.0,1.1,75,0.00,,,0.00,WUHU216HW,2013-06-19 07:10:00,
2013-06-19 02:15:00,50.8,44.1,30.06,NNW,338,1.1,1.1,78,0.00,,,0.00,WUHU216HW,2013-06-19 07:15:00,
2013-06-19 02:20:00,50.4,43.7,30.06,NNW,338,0.0,1.1,78,0.00,,,0.00,WUHU216HW,2013-06-19 07:20:00,
2013-06-19 02:25:00,50.0,43.4,30.06,NNW,338,0.0,1.1,78,0.00,,,0.00,WUHU216HW,2013-06-19 07:25:00,
2013-06-19 02:30:00,49.9,43.2,30.06,NNW,338,0.7,0.9,78,0.00,,,0.00,WUHU216HW,2013-06-19 07:30:00,
2013-06-19 02:35:00,49.9,43.6,30.06,NNW,338,0.0,0.9,79,0.00,,,0.00,WUHU216HW,2013-06-19 07:35:00,
2013-06-19 02:40:00,49.7,43.7,30.06,NNW,338,0.0,0.9,80,0.00,,,0.00,WUHU216HW,2013-06-19 07:40:00,
2013-06-19 02:45:00,49.5,43.6,30.06,North,0,1.3,1.6,80,0.00,,,0.00,WUHU216HW,2013-06-19 07:45:00,
2013-06-19 02:50:00,49.5,43.6,30.06,North,0,1.1,1.6,80,0.00,,,0.00,WUHU216HW,2013-06-19 07:50:00,
2013-06-19 02:55:00,49.3,43.4,30.06,North,0,0.4,1.3,80,0.00,,,0.00,WUHU216HW,2013-06-19 07:55:00,
2013-06-19 03:00:00,49.1,43.2,30.06,North,0,1.6,1.8,80,0.00,,,0.00,WUHU216HW,2013-06-19 08:00:00,
2013-06-19 03:05:00,49.0,43.0,30.06,North,0,0.9,1.8,80,0.00,,,0.00,WUHU216HW,2013-06-19 08:05:00,
2013-06-19 03:10:00,48.6,43.0,30.06,North,0,1.1,1.3,81,0.00,,,0.00,WUHU216HW,2013-06-19 08:10:00,
2013-06-19 03:15:00,48.4,42.9,30.06,North,0,1.1,1.6,81,0.00,,,0.00,WUHU216HW,2013-06-19 08:15:00,
2013-06-19 03:20:00,48.2,42.3,30.06,North,0,1.1,1.6,80,0.00,,,0.00,WUHU216HW,2013-06-19 08:20:00,
2013-06-19 03:25:00,48.1,42.8,30.06,NNE,23,1.3,1.8,82,0.00,,,0.00,WUHU216HW,2013-06-19 08:25:00,
2013-06-19 03:30:00,48.2,42.9,30.06,NNE,23,0.9,1.8,82,0.00,,,0.00,WUHU216HW,2013-06-19 08:30:00,
2013-06-19 03:35:00,48.6,43.9,30.06,NNE,23,1.1,2.0,84,0.00,,,0.00,WUHU216HW,2013-06-19 08:35:00,
2013-06-19 03:40:00,48.6,43.3,30.06,NNE,23,1.6,2.0,82,0.00,,,0.00,WUHU216HW,2013-06-19 08:40:00,
2013-06-19 03:45:00,48.2,42.7,30.06,NNE,23,1.1,1.6,81,0.00,,,0.00,WUHU216HW,2013-06-19 08:45:00,
2013-06-19 03:50:00,48.2,42.7,30.06,NNE,23,1.1,1.6,81,0.00,,,0.00,WUHU216HW,2013-06-19 08:50:00,
2013-06-19 03:55:00,48.4,43.5,30.06,NNE,23,1.1,1.8,83,0.00,,,0.00,WUHU216HW,2013-06-19 08:55:00,
2013-06-19 04:00:00,48.4,43.1,30.06,NNE,23,0.4,1.8,82,0.00,,,0.00,WUHU216HW,2013-06-19 09:00:00,
2013-06-19 04:05:00,48.2,42.3,30.06,NNE,23,1.1,1.3,80,0.00,,,0.00,WUHU216HW,2013-06-19 09:05:00,
2013-06-19 04:10:00,48.1,42.1,30.06,ENE,68,1.1,2.5,80,0.00,,,0.00,WUHU216HW,2013-06-19 09:10:00,
2013-06-19 04:15:00,47.9,42.9,30.06,ENE,68,1.3,2.5,83,0.00,,,0.00,WUHU216HW,2013-06-19 09:15:00,
2013-06-19 04:20:00,48.2,42.9,30.05,ENE,68,1.1,2.7,82,0.00,,,0.00,WUHU216HW,2013-06-19 09:20:00,
2013-06-19 04:25:00,48.4,43.1,30.05,East,90,1.3,2.7,82,0.00,,,0.00,WUHU216HW,2013-06-19 09:25:00,
2013-06-19 04:30:00,48.4,42.5,30.05,East,90,0.4,2.0,80,0.00,,,0.00,WUHU216HW,2013-06-19 09:30:00,
2013-06-19 04:35:00,48.4,42.5,30.05,East,90,0.0,1.8,80,0.00,,,0.00,WUHU216HW,2013-06-19 09:35:00,
2013-06-19 04:40:00,48.6,42.7,30.05,East,90,0.0,0.0,80,0.00,,,0.00,WUHU216HW,2013-06-19 09:40:00,
2013-06-19 04:45:00,48.4,42.1,30.06,East,90,0.9,0.9,79,0.00,,,0.00,WUHU216HW,2013-06-19 09:45:00,
2013-06-19 04:50:00,48.2,41.9,30.05,East,90,1.1,1.1,79,0.00,,,0.00,WUHU216HW,2013-06-19 09:50:00,
2013-06-19 04:55:00,48.1,41.8,30.05,East,90,0.9,1.1,79,0.00,,,0.00,WUHU216HW,2013-06-19 09:55:00,
2013-06-19 05:00:00,48.1,41.5,30.05,ESE,113,1.8,2.2,78,0.00,,,0.00,WUHU216HW,2013-06-19 10:00:00,
2013-06-19 05:05:00,48.2,41.9,30.05,East,90,1.8,2.5,79,0.00,,,0.00,WUHU216HW,2013-06-19 10:05:00,
2013-06-19 05:10:00,48.8,42.1,30.04,ENE,68,2.7,2.7,78,0.00,,,0.00,WUHU216HW,2013-06-19 10:10:00,
2013-06-19 05:15:00,49.3,42.4,30.05,ENE,68,2.7,3.1,77,0.00,,,0.00,WUHU216HW,2013-06-19 10:15:00,
2013-06-19 05:20:00,49.7,42.0,30.05,ENE,68,2.7,3.1,75,0.00,,,0.00,WUHU216HW,2013-06-19 10:20:00,
2013-06-19 05:25:00,50.0,42.4,30.05,East,90,1.6,3.6,75,0.00,,,0.00,WUHU216HW,2013-06-19 10:25:00,
2013-06-19 05:30:00,50.2,42.2,30.05,East,90,0.7,3.6,74,0.00,,,0.00,WUHU216HW,2013-06-19 10:30:00,
2013-06-19 05:35:00,50.4,42.4,30.05,ENE,68,2.2,2.2,74,0.00,,,0.00,WUHU216HW,2013-06-19 10:35:00,
2013-06-19 05:40:00,50.4,42.0,30.05,ENE,68,1.6,2.7,73,0.00,,,0.00,WUHU216HW,2013-06-19 10:40:00,
2013-06-19 05:45:00,50.6,42.2,30.05,East,90,1.3,3.4,73,0.00,,,0.00,WUHU216HW,2013-06-19 10:45:00,
2013-06-19 05:50:00,51.3,42.7,30.05,ESE,113,2.5,4.0,72,0.00,,,0.00,WUHU216HW,2013-06-19 10:50:00,
2013-06-19 05:55:00,53.6,44.8,30.05,ESE,113,3.4,6.0,72,0.00,,,0.00,WUHU216HW,2013-06-19 10:55:00,
2013-06-19 06:00:00,56.2,46.2,30.06,ESE,113,4.0,6.0,69,0.00,,,0.00,WUHU216HW,2013-06-19 11:00:00,
2013-06-19 06:05:00,58.3,47.0,30.06,East,90,2.5,4.5,66,0.00,,,0.00,WUHU216HW,2013-06-19 11:05:00,
2013-06-19 06:10:00,60.5,47.9,30.06,ENE,68,1.3,4.5,63,0.00,,,0.00,WUHU216HW,2013-06-19 11:10:00,
2013-06-19 06:15:00,61.9,49.6,30.06,ESE,113,2.0,3.8,64,0.00,,,0.00,WUHU216HW,2013-06-19 11:15:00,
2013-06-19 06:20:00,63.7,48.6,30.06,East,90,1.3,4.5,58,0.00,,,0.00,WUHU216HW,2013-06-19 11:20:00,
2013-06-19 06:25:00,64.8,49.6,30.06,ESE,113,1.3,4.5,58,0.00,,,0.00,WUHU216HW,2013-06-19 11:25:00,
2013-06-19 06:30:00,65.9,50.2,30.07,ESE,113,1.6,2.5,57,0.00,,,0.00,WUHU216HW,2013-06-19 11:30:00,
2013-06-19 06:35:00,67.3,51.0,30.07,SE,135,1.3,2.5,56,0.00,,,0.00,WUHU216HW,2013-06-19 11:35:00,
2013-06-19 06:40:00,68.0,49.2,30.07,ESE,113,1.8,3.1,51,0.00,,,0.00,WUHU216HW,2013-06-19 11:40:00,
2013-06-19 06:45:00,68.6,48.1,30.07,ENE,68,1.8,3.4,48,0.00,,,0.00,WUHU216HW,2013-06-19 11:45:00,
2013-06-19 06:50:00,68.0,48.2,30.07,East,90,1.8,3.4,49,0.00,,,0.00,WUHU216HW,2013-06-19 11:50:00,
2013-06-19 06:55:00,68.6,49.2,30.08,East,90,1.8,3.4,50,0.00,,,0.00,WUHU216HW,2013-06-19 11:55:00,
2013-06-19 07:00:00,69.5,48.9,30.08,ESE,113,2.5,3.8,48,0.00,,,0.00,WUHU216HW,2013-06-19 12:00:00,
2013-06-19 07:05:00,70.0,48.2,30.08,SE,135,4.0,4.0,46,0.00,,,0.00,WUHU216HW,2013-06-19 12:05:00,
2013-06-19 07:10:00,68.9,46.6,30.09,ESE,113,4.5,5.8,45,0.00,,,0.00,WUHU216HW,2013-06-19 12:10:00,
2013-06-19 07:15:00,69.7,49.1,30.09,SSE,158,6.9,6.9,48,0.00,,,0.00,WUHU216HW,2013-06-19 12:15:00,
2013-06-19 07:20:00,68.9,47.8,30.09,SE,135,4.0,10.3,47,0.00,,,0.00,WUHU216HW,2013-06-19 12:20:00,
2013-06-19 07:25:00,68.4,47.4,30.09,ESE,113,5.4,10.3,47,0.00,,,0.00,WUHU216HW,2013-06-19 12:25:00,
2013-06-19 07:30:00,67.1,47.3,30.09,SE,135,1.6,7.6,49,0.00,,,0.00,WUHU216HW,2013-06-19 12:30:00,
2013-06-19 07:35:00,66.6,47.5,30.09,ESE,113,3.4,4.9,50,0.00,,,0.00,WUHU216HW,2013-06-19 12:35:00,
2013-06-19 07:40:00,65.7,46.6,30.09,ESE,113,4.7,5.4,50,0.00,,,0.00,WUHU216HW,2013-06-19 12:40:00,
2013-06-19 07:45:00,64.8,46.7,30.09,SE,135,5.4,5.4,52,0.00,,,0.00,WUHU216HW,2013-06-19 12:45:00,
2013-06-19 07:50:00,64.6,47.5,30.09,SSE,158,3.8,5.4,54,0.00,,,0.00,WUHU216HW,2013-06-19 12:50:00,
2013-06-19 07:55:00,64.8,48.2,30.09,SE,135,4.0,6.9,55,0.00,,,0.00,WUHU216HW,2013-06-19 12:55:00,
2013-06-19 08:00:00,64.8,48.2,30.09,SSE,158,5.4,6.9,55,0.00,,,0.00,WUHU216HW,2013-06-19 13:00:00,
2013-06-19 08:05:00,65.0,48.8,30.09,SE,135,4.9,6.7,56,0.00,,,0.00,WUHU216HW,2013-06-19 13:05:00,
2013-06-19 08:10:00,65.2,48.1,30.09,SSE,158,13.0,13.0,54,0.00,,,0.00,WUHU216HW,2013-06-19 13:10:00,
2013-06-19 08:15:00,65.2,49.0,30.09,SE,135,2.9,13.0,56,0.00,,,0.00,WUHU216HW,2013-06-19 13:15:00,
2013-06-19 08:20:00,65.5,48.9,30.09,SSE,158,7.4,13.0,55,0.00,,,0.00,WUHU216HW,2013-06-19 13:20:00,
2013-06-19 08:25:00,65.9,50.7,30.09,SSW,203,4.0,10.7,58,0.00,,,0.00,WUHU216HW,2013-06-19 13:25:00,
2013-06-19 08:30:00,66.2,50.6,30.09,SE,135,3.4,9.4,57,0.00,,,0.00,WUHU216HW,2013-06-19 13:30:00,
2013-06-19 08:35:00,66.6,50.4,30.09,SE,135,3.8,9.4,56,0.00,,,0.00,WUHU216HW,2013-06-19 13:35:00,
2013-06-19 08:40:00,66.6,50.4,30.09,SE,135,4.0,4.5,56,0.00,,,0.00,WUHU216HW,2013-06-19 13:40:00,
2013-06-19 08:45:00,67.3,50.6,30.08,SSE,158,5.8,8.7,55,0.00,,,0.00,WUHU216HW,2013-06-19 13:45:00,
2013-06-19 08:50:00,68.0,51.7,30.09,SE,135,4.9,8.7,56,0.00,,,0.00,WUHU216HW,2013-06-19 13:50:00,
2013-06-19 08:55:00,68.4,51.6,30.08,SSE,158,5.4,9.2,55,0.00,,,0.00,WUHU216HW,2013-06-19 13:55:00,
2013-06-19 09:00:00,68.6,51.2,30.09,South,180,4.3,9.8,54,0.00,,,0.00,WUHU216HW,2013-06-19 14:00:00,
2013-06-19 09:05:00,68.8,51.0,30.09,SE,135,6.5,9.8,53,0.00,,,0.00,WUHU216HW,2013-06-19 14:05:00,
2013-06-19 09:10:00,68.9,51.1,30.09,SE,135,11.0,11.9,53,0.00,,,0.00,WUHU216HW,2013-06-19 14:10:00,
2013-06-19 09:15:00,69.1,52.8,30.09,SSW,203,5.8,11.9,56,0.00,,,0.00,WUHU216HW,2013-06-19 14:15:00,
2013-06-19 09:20:00,69.3,51.9,30.09,SSW,203,5.8,12.1,54,0.00,,,0.00,WUHU216HW,2013-06-19 14:20:00,
2013-06-19 09:25:00,69.5,51.1,30.09,SSE,158,6.3,13.4,52,0.00,,,0.00,WUHU216HW,2013-06-19 14:25:00,
2013-06-19 09:30:00,69.8,52.4,30.09,SSW,203,11.2,13.4,54,0.00,,,0.00,WUHU216HW,2013-06-19 14:30:00,
2013-06-19 09:35:00,70.2,51.2,30.09,South,180,10.5,14.3,51,0.00,,,0.00,WUHU216HW,2013-06-19 14:35:00,
2013-06-19 09:40:00,70.4,52.9,30.09,SSE,158,8.1,14.3,54,0.00,,,0.00,WUHU216HW,2013-06-19 14:40:00,
2013-06-19 09:45:00,70.6,51.6,30.09,SW,225,6.9,14.3,51,0.00,,,0.00,WUHU216HW,2013-06-19 14:45:00,
2013-06-19 09:50:00,70.6,51.0,30.08,SW,225,9.8,16.8,50,0.00,,,0.00,WUHU216HW,2013-06-19 14:50:00,
2013-06-19 09:55:00,70.4,50.9,30.09,SW,225,13.4,19.9,50,0.00,,,0.00,WUHU216HW,2013-06-19 14:55:00,
2013-06-19 10:00:00,70.6,52.0,30.08,SSW,203,11.4,19.9,52,0.00,,,0.00,WUHU216HW,2013-06-19 15:00:00,
2013-06-19 10:05:00,70.9,52.4,30.08,South,180,8.5,13.9,52,0.00,,,0.00,WUHU216HW,2013-06-19 15:05:00,
2013-06-19 10:10:00,71.3,52.2,30.08,SSE,158,15.4,19.2,51,0.00,,,0.00,WUHU216HW,2013-06-19 15:10:00,
2013-06-19 10:15:00,71.3,52.2,30.08,SW,225,13.0,20.8,51,0.00,,,0.00,WUHU216HW,2013-06-19 15:15:00,
2013-06-19 10:20:00,71.3,52.2,30.08,SSE,158,10.3,20.8,51,0.00,,,0.00,WUHU216HW,2013-06-19 15:20:00,
2013-06-19 10:25:00,71.6,51.4,30.08,SE,135,4.9,19.7,49,0.00,,,0.00,WUHU216HW,2013-06-19 15:25:00,
2013-06-19 10:30:00,71.8,52.7,30.08,SE,135,4.5,10.3,51,0.00,,,0.00,WUHU216HW,2013-06-19 15:30:00,
2013-06-19 10:35:00,72.4,51.5,30.08,SE,135,6.9,7.6,48,0.00,,,0.00,WUHU216HW,2013-06-19 15:35:00,
2013-06-19 10:40:00,72.2,50.8,30.08,SE,135,22.8,25.1,47,0.00,,,0.00,WUHU216HW,2013-06-19 15:40:00,
2013-06-19 10:45:00,72.2,51.9,30.08,SE,135,4.0,25.1,49,0.00,,,0.00,WUHU216HW,2013-06-19 15:45:00,
2013-06-19 10:50:00,72.7,53.0,30.07,SSE,158,2.5,19.7,50,0.00,,,0.00,WUHU216HW,2013-06-19 15:50:00,
2013-06-19 10:55:00,72.9,51.4,30.08,SE,135,4.0,8.5,47,0.00,,,0.00,WUHU216HW,2013-06-19 15:55:00,
2013-06-19 11:00:00,73.1,52.8,30.08,SW,225,3.1,8.5,49,0.00,,,0.00,WUHU216HW,2013-06-19 16:00:00,
2013-06-19 11:05:00,73.3,51.1,30.08,ESE,113,5.4,7.4,46,0.00,,,0.00,WUHU216HW,2013-06-19 16:05:00,
2013-06-19 11:10:00,73.4,52.5,30.08,SE,135,2.2,7.4,48,0.00,,,0.00,WUHU216HW,2013-06-19 16:10:00,
2013-06-19 11:15:00,73.8,52.2,30.07,SSW,203,4.3,6.9,47,0.00,,,0.00,WUHU216HW,2013-06-19 16:15:00,
2013-06-19 11:20:00,73.8,52.2,30.07,South,180,14.8,16.3,47,0.00,,,0.00,WUHU216HW,2013-06-19 16:20:00,
2013-06-19 11:25:00,74.2,52.6,30.07,SE,135,8.5,16.3,47,0.00,,,0.00,WUHU216HW,2013-06-19 16:25:00,
2013-06-19 11:30:00,74.3,53.4,30.07,SSW,203,7.4,14.8,48,0.00,,,0.00,WUHU216HW,2013-06-19 16:30:00,
2013-06-19 11:35:00,74.5,54.7,30.07,SSW,203,13.9,18.3,50,0.00,,,0.00,WUHU216HW,2013-06-19 16:35:00,
2013-06-19 11:40:00,74.9,55.6,30.07,SSW,203,9.4,18.3,51,0.00,,,0.00,WUHU216HW,2013-06-19 16:40:00,
2013-06-19 11:45:00,75.1,53.5,30.07,WSW,248,15.7,15.7,47,0.00,,,0.00,WUHU216HW,2013-06-19 16:45:00,
2013-06-19 11:50:00,75.2,51.8,30.07,South,180,7.4,15.7,44,0.00,,,0.00,WUHU216HW,2013-06-19 16:50:00,
2013-06-19 11:55:00,75.1,51.6,30.07,ESE,113,3.4,15.7,44,0.00,,,0.00,WUHU216HW,2013-06-19 16:55:00,
2013-06-19 12:00:00,75.1,51.0,30.07,SW,225,5.4,11.9,43,0.00,,,0.00,WUHU216HW,2013-06-19 17:00:00,
2013-06-19 12:05:00,74.9,52.7,30.07,East,90,6.0,11.9,46,0.00,,,0.00,WUHU216HW,2013-06-19 17:05:00,
2013-06-19 12:10:00,74.5,51.7,30.07,East,90,4.0,8.1,45,0.00,,,0.00,WUHU216HW,2013-06-19 17:10:00,
2013-06-19 12:15:00,74.9,52.7,30.07,South,180,6.3,9.4,46,0.00,,,0.00,WUHU216HW,2013-06-19 17:15:00,
2013-06-19 12:20:00,75.2,52.4,30.07,SE,135,15.9,15.9,45,0.00,,,0.00,WUHU216HW,2013-06-19 17:20:00,
2013-06-19 12:25:00,75.6,53.3,30.07,SSE,158,11.9,16.3,46,0.00,,,0.00,WUHU216HW,2013-06-19 17:25:00,
2013-06-19 12:30:00,75.8,52.3,30.07,ESE,113,13.2,16.3,44,0.00,,,0.00,WUHU216HW,2013-06-19 17:30:00,
2013-06-19 12:35:00,76.0,51.2,30.07,ESE,113,4.5,14.3,42,0.00,,,0.00,WUHU216HW,2013-06-19 17:35:00,
2013-06-19 12:40:00,76.3,53.4,30.07,WSW,248,2.0,14.3,45,0.00,,,0.00,WUHU216HW,2013-06-19 17:40:00,
2013-06-19 12:45:00,76.0,52.4,30.07,ENE,68,6.3,7.6,44,0.00,,,0.00,WUHU216HW,2013-06-19 17:45:00,
2013-06-19 12:50:00,75.2,52.4,30.07,ESE,113,8.3,11.9,45,0.00,,,0.00,WUHU216HW,2013-06-19 17:50:00,
2013-06-19 12:55:00,75.2,50.0,30.07,NE,45,3.8,11.9,41,0.00,,,0.00,WUHU216HW,2013-06-19 17:55:00,
2013-06-19 13:00:00,75.2,53.0,30.07,SSW,203,6.3,9.4,46,0.00,,,0.00,WUHU216HW,2013-06-19 18:00:00,
2013-06-19 13:05:00,76.0,53.0,30.07,SSE,158,4.7,11.4,45,0.00,,,0.00,WUHU216HW,2013-06-19 18:05:00,
2013-06-19 13:10:00,76.5,52.9,30.07,North,0,7.6,15.9,44,0.00,,,0.00,WUHU216HW,2013-06-19 18:10:00,
2013-06-19 13:15:00,76.0,53.0,30.06,NNE,23,1.1,15.9,45,0.00,,,0.00,WUHU216HW,2013-06-19 18:15:00,
2013-06-19 13:19:00,75.6,52.1,30.06,SW,225,5.6,11.9,44,0.00,,,0.00,WUHU216HW,2013-06-19 18:19:00,
2013-06-19 13:24:00,76.0,52.4,30.06,NE,45,1.1,11.9,44,0.00,,,0.00,WUHU216HW,2013-06-19 18:24:00,
2013-06-19 13:29:00,76.3,52.1,30.06,SE,135,11.4,14.3,43,0.00,,,0.00,WUHU216HW,2013-06-19 18:29:00,
2013-06-19 13:34:00,76.3,52.1,30.06,SE,135,5.8,14.3,43,0.00,,,0.00,WUHU216HW,2013-06-19 18:34:00,
2013-06-19 13:39:00,75.6,53.3,30.05,ENE,68,4.0,13.9,46,0.00,,,0.00,WUHU216HW,2013-06-19 18:39:00,
2013-06-19 13:44:00,76.0,51.2,30.05,NE,45,8.1,13.2,42,0.00,,,0.00,WUHU216HW,2013-06-19 18:44:00,
2013-06-19 13:49:00,75.8,52.8,30.05,South,180,3.4,13.2,45,0.00,,,0.00,WUHU216HW,2013-06-19 18:49:00,
2013-06-19 13:54:00,76.7,54.9,30.04,SE,135,4.7,12.8,47,0.00,,,0.00,WUHU216HW,2013-06-19 18:54:00,
2013-06-19 13:59:00,77.2,52.3,30.04,SE,135,9.8,20.8,42,0.00,,,0.00,WUHU216HW,2013-06-19 18:59:00,
2013-06-19 14:04:00,77.2,51.1,30.05,SSW,203,4.5,20.8,40,0.00,,,0.00,WUHU216HW,2013-06-19 19:04:00,
2013-06-19 14:09:00,77.4,54.4,30.04,SSW,203,4.7,17.9,45,0.00,,,0.00,WUHU216HW,2013-06-19 19:09:00,
2013-06-19 14:14:00,77.8,52.8,30.04,WSW,248,8.1,10.5,42,0.00,,,0.00,WUHU216HW,2013-06-19 19:14:00,
2013-06-19 14:19:00,78.1,54.4,30.04,WNW,293,4.0,10.5,44,0.00,,,0.00,WUHU216HW,2013-06-19 19:19:00,
2013-06-19 14:24:00,78.1,51.1,30.04,ENE,68,10.5,15.0,39,0.00,,,0.00,WUHU216HW,2013-06-19 19:24:00,
2013-06-19 14:29:00,77.4,51.3,30.04,ESE,113,13.4,15.0,40,0.00,,,0.00,WUHU216HW,2013-06-19 19:29:00,
2013-06-19 14:34:00,77.8,50.0,30.04,SE,135,20.8,20.8,38,0.00,,,0.00,WUHU216HW,2013-06-19 19:34:00,
2013-06-19 14:39:00,77.6,49.9,30.04,NNE,23,4.9,20.8,38,0.00,,,0.00,WUHU216HW,2013-06-19 19:39:00,
2013-06-19 14:44:00,77.0,50.2,30.04,SE,135,6.7,20.8,39,0.00,,,0.00,WUHU216HW,2013-06-19 19:44:00,
2013-06-19 14:49:00,77.4,52.5,30.04,SSE,158,9.6,14.1,42,0.00,,,0.00,WUHU216HW,2013-06-19 19:49:00,
2013-06-19 14:54:00,78.1,52.6,30.04,SW,225,3.6,15.7,41,0.00,,,0.00,WUHU216HW,2013-06-19 19:54:00,
2013-06-19 14:59:00,78.5,52.2,30.04,SE,135,5.6,15.7,40,0.00,,,0.00,WUHU216HW,2013-06-19 19:59:00,
2013-06-19 15:04:00,78.3,52.1,30.03,WSW,248,1.6,8.3,40,0.00,,,0.00,WUHU216HW,2013-06-19 20:04:00,
2013-06-19 15:09:00,78.7,53.7,30.03,SSE,158,13.4,13.4,42,0.00,,,0.00,WUHU216HW,2013-06-19 20:09:00,
2013-06-19 15:14:00,78.8,56.3,30.03,SW,225,9.6,13.4,46,0.00,,,0.00,WUHU216HW,2013-06-19 20:14:00,
2013-06-19 15:19:00,79.2,54.1,30.03,SW,225,16.8,16.8,42,0.00,,,0.00,WUHU216HW,2013-06-19 20:19:00,
2013-06-19 15:24:00,79.6,55.1,30.03,SW,225,5.4,20.4,43,0.00,,,0.00,WUHU216HW,2013-06-19 20:24:00,
2013-06-19 15:29:00,79.2,52.1,30.03,SW,225,4.3,21.3,39,0.00,,,0.00,WUHU216HW,2013-06-19 20:29:00,
2013-06-19 15:34:00,79.4,53.0,30.03,SW,225,15.4,21.3,40,0.00,,,0.00,WUHU216HW,2013-06-19 20:34:00,
2013-06-19 15:39:00,79.9,54.2,30.03,ESE,113,13.4,18.8,41,0.00,,,0.00,WUHU216HW,2013-06-19 20:39:00,
2013-06-19 15:44:00,79.6,53.2,30.03,SSE,158,10.5,23.7,40,0.00,,,0.00,WUHU216HW,2013-06-19 20:44:00,
2013-06-19 15:49:00,79.4,53.6,30.03,South,180,9.6,23.7,41,0.00,,,0.00,WUHU216HW,2013-06-19 20:49:00,
2013-06-19 15:54:00,79.7,53.4,30.03,East,90,8.9,16.3,40,0.00,,,0.00,WUHU216HW,2013-06-19 20:54:00,
2013-06-19 15:59:00,79.9,52.7,30.03,ESE,113,9.2,15.9,39,0.00,,,0.00,WUHU216HW,2013-06-19 20:59:00,
2013-06-19 16:04:00,79.9,53.6,30.02,SE,135,5.1,15.9,40,0.00,,,0.00,WUHU216HW,2013-06-19 21:04:00,
2013-06-19 16:09:00,79.9,54.2,30.02,SSE,158,6.9,11.9,41,0.00,,,0.00,WUHU216HW,2013-06-19 21:09:00,
2013-06-19 16:14:00,79.9,54.2,30.02,South,180,9.2,18.3,41,0.00,,,0.00,WUHU216HW,2013-06-19 21:14:00,
2013-06-19 16:19:00,79.6,53.8,30.02,ESE,113,5.6,18.3,41,0.00,,,0.00,WUHU216HW,2013-06-19 21:19:00,
2013-06-19 16:24:00,79.6,55.1,30.02,SE,135,10.1,11.4,43,0.00,,,0.00,WUHU216HW,2013-06-19 21:24:00,
2013-06-19 16:29:00,79.9,53.6,30.02,SE,135,5.8,14.8,40,0.00,,,0.00,WUHU216HW,2013-06-19 21:29:00,
2013-06-19 16:34:00,79.9,54.7,30.02,SSW,203,8.3,17.2,42,0.00,,,0.00,WUHU216HW,2013-06-19 21:34:00,
2013-06-19 16:39:00,80.1,53.7,30.03,SE,135,9.2,17.2,40,0.00,,,0.00,WUHU216HW,2013-06-19 21:39:00,
2013-06-19 16:44:00,79.9,53.6,30.02,SSE,158,9.8,11.9,40,0.00,,,0.00,WUHU216HW,2013-06-19 21:44:00,
2013-06-19 16:49:00,79.6,53.8,30.02,ESE,113,9.2,29.5,41,0.00,,,0.00,WUHU216HW,2013-06-19 21:49:00,
2013-06-19 16:54:00,79.7,53.4,30.02,ESE,113,4.7,29.5,40,0.00,,,0.00,WUHU216HW,2013-06-19 21:54:00,
2013-06-19 16:59:00,79.7,54.0,30.02,SE,135,2.5,14.8,41,0.00,,,0.00,WUHU216HW,2013-06-19 21:59:00,
2013-06-19 17:04:00,79.9,53.6,30.02,SSE,158,5.8,14.5,40,0.00,,,0.00,WUHU216HW,2013-06-19 22:04:00,
2013-06-19 17:09:00,79.4,53.6,30.02,SSW,203,1.8,7.8,41,0.00,,,0.00,WUHU216HW,2013-06-19 22:09:00,
2013-06-19 17:14:00,79.6,53.8,30.02,SE,135,7.2,7.8,41,0.00,,,0.00,WUHU216HW,2013-06-19 22:14:00,
2013-06-19 17:19:00,79.7,54.0,30.02,SSE,158,13.2,15.0,41,0.00,,,0.00,WUHU216HW,2013-06-19 22:19:00,
2013-06-19 17:24:00,80.1,54.3,30.02,SSW,203,2.0,21.5,41,0.00,,,0.00,WUHU216HW,2013-06-19 22:24:00,
2013-06-19 17:29:00,79.9,55.4,30.02,SW,225,12.1,21.5,43,0.00,,,0.00,WUHU216HW,2013-06-19 22:29:00,
2013-06-19 17:34:00,79.9,54.2,30.01,SSE,158,3.8,12.1,41,0.00,,,0.00,WUHU216HW,2013-06-19 22:34:00,
2013-06-19 17:39:00,80.1,53.7,30.02,SE,135,4.9,15.0,40,0.00,,,0.00,WUHU216HW,2013-06-19 22:39:00,
2013-06-19 17:44:00,80.5,54.6,30.01,SW,225,4.7,15.0,41,0.00,,,0.00,WUHU216HW,2013-06-19 22:44:00,
2013-06-19 17:49:00,80.8,54.4,30.01,SSW,203,7.6,7.6,40,0.00,,,0.00,WUHU216HW,2013-06-19 22:49:00,
2013-06-19 17:54:00,81.0,55.1,30.01,SSW,203,2.7,8.5,41,0.00,,,0.00,WUHU216HW,2013-06-19 22:54:00,
2013-06-19 17:59:00,80.8,54.4,30.01,SSE,158,6.3,8.5,40,0.00,,,0.00,WUHU216HW,2013-06-19 22:59:00,
2013-06-19 18:04:00,80.8,54.4,30.01,West,270,2.0,10.5,40,0.00,,,0.00,WUHU216HW,2013-06-19 23:04:00,
2013-06-19 18:09:00,80.8,54.4,30.01,SW,225,3.4,10.5,40,0.00,,,0.00,WUHU216HW,2013-06-19 23:09:00,
2013-06-19 18:14:00,80.8,54.4,30.01,WSW,248,7.8,8.9,40,0.00,,,0.00,WUHU216HW,2013-06-19 23:14:00,
2013-06-19 18:19:00,81.0,54.6,30.01,WSW,248,5.4,11.2,40,0.00,,,0.00,WUHU216HW,2013-06-19 23:19:00,
2013-06-19 18:24:00,81.0,53.7,30.01,SSW,203,5.1,11.2,39,0.00,,,0.00,WUHU216HW,2013-06-19 23:24:00,
2013-06-19 18:29:00,81.7,55.8,30.01,ESE,113,3.4,10.7,41,0.00,,,0.00,WUHU216HW,2013-06-19 23:29:00,
2013-06-19 18:34:00,82.8,53.7,30.01,NE,45,2.0,8.1,37,0.00,,,0.00,WUHU216HW,2013-06-19 23:34:00,
2013-06-19 18:39:00,83.9,53.1,30.01,NNW,338,4.0,6.0,35,0.00,,,0.00,WUHU216HW,2013-06-19 23:39:00,
2013-06-19 18:44:00,86.0,55.9,30.01,WSW,248,1.8,12.3,36,0.00,,,0.00,WUHU216HW,2013-06-19 23:44:00,
2013-06-19 18:49:00,88.2,56.1,30.01,WSW,248,2.2,12.3,34,0.00,,,0.00,WUHU216HW,2013-06-19 23:49:00,
2013-06-19 18:54:00,90.4,58.0,30.01,West,270,7.8,13.4,34,0.00,,,0.00,WUHU216HW,2013-06-19 23:54:00,
2013-06-19 18:59:00,90.5,56.6,30.01,SW,225,13.2,13.4,32,0.00,,,0.00,WUHU216HW,2013-06-19 23:59:00,
2013-06-19 19:04:00,90.7,57.5,30.01,SSE,158,5.4,13.2,33,0.00,,,0.00,WUHU216HW,2013-06-20 00:04:00,
2013-06-19 19:09:00,90.0,57.7,30.01,WSW,248,8.5,13.2,34,0.00,,,0.00,WUHU216HW,2013-06-20 00:09:00,
2013-06-19 19:14:00,89.6,56.5,30.01,SSE,158,2.5,8.9,33,0.00,,,0.00,WUHU216HW,2013-06-20 00:14:00,
2013-06-19 19:19:00,89.1,56.9,30.01,SE,135,5.4,8.5,34,0.00,,,0.00,WUHU216HW,2013-06-20 00:19:00,
2013-06-19 19:24:00,88.7,56.6,30.01,SSE,158,2.5,12.1,34,0.00,,,0.00,WUHU216HW,2013-06-20 00:24:00,
2013-06-19 19:29:00,88.6,56.4,30.01,SE,135,3.8,12.1,34,0.00,,,0.00,WUHU216HW,2013-06-20 00:29:00,
2013-06-19 19:34:00,88.6,56.4,30.01,SE,135,4.3,8.7,34,0.00,,,0.00,WUHU216HW,2013-06-20 00:34:00,
2013-06-19 19:39:00,88.0,55.2,30.01,ESE,113,4.9,10.3,33,0.00,,,0.00,WUHU216HW,2013-06-20 00:39:00,
2013-06-19 19:44:00,86.9,55.1,30.02,SE,135,2.2,10.3,34,0.00,,,0.00,WUHU216HW,2013-06-20 00:44:00,
2013-06-19 19:49:00,85.3,53.6,30.02,SSE,158,2.0,4.9,34,0.00,,,0.00,WUHU216HW,2013-06-20 00:49:00,
2013-06-19 19:54:00,83.7,53.7,30.01,SE,135,2.2,4.5,36,0.00,,,0.00,WUHU216HW,2013-06-20 00:54:00,
2013-06-19 19:59:00,82.4,54.2,30.02,SSE,158,3.1,4.9,38,0.00,,,0.00,WUHU216HW,2013-06-20 00:59:00,
2013-06-19 20:03:00,81.7,54.4,30.02,SE,135,3.4,4.9,39,0.00,,,0.00,WUHU216HW,2013-06-20 01:03:00,
2013-06-19 20:08:00,81.2,53.9,30.01,SE,135,1.3,4.0,39,0.00,,,0.00,WUHU216HW,2013-06-20 01:08:00,
2013-06-19 20:13:00,80.5,54.0,30.01,SSE,158,3.4,3.6,40,0.00,,,0.00,WUHU216HW,2013-06-20 01:13:00,
2013-06-19 20:18:00,78.8,53.2,30.01,SE,135,2.5,3.6,41,0.00,,,0.00,WUHU216HW,2013-06-20 01:18:00,
2013-06-19 20:23:00,77.2,52.9,30.01,SE,135,2.2,3.4,43,0.00,,,0.00,WUHU216HW,2013-06-20 01:23:00,
2013-06-19 20:28:00,76.0,52.4,30.01,SSE,158,2.7,4.0,44,0.00,,,0.00,WUHU216HW,2013-06-20 01:28:00,
2013-06-19 20:33:00,75.1,52.2,30.01,SE,135,2.7,4.0,45,0.00,,,0.00,WUHU216HW,2013-06-20 01:33:00,
2013-06-19 20:38:00,74.5,52.3,30.01,SE,135,2.0,4.0,46,0.00,,,0.00,WUHU216HW,2013-06-20 01:38:00,
2013-06-19 20:43:00,73.8,53.4,30.01,ESE,113,2.5,2.7,49,0.00,,,0.00,WUHU216HW,2013-06-20 01:43:00,
2013-06-19 20:48:00,72.9,53.6,30.01,SE,135,6.9,8.7,51,0.00,,,0.00,WUHU216HW,2013-06-20 01:48:00,
2013-06-19 20:53:00,72.0,53.8,30.01,SE,135,7.2,9.4,53,0.00,,,0.00,WUHU216HW,2013-06-20 01:53:00,
2013-06-19 20:58:00,71.3,54.2,30.01,SE,135,6.7,9.4,55,0.00,,,0.00,WUHU216HW,2013-06-20 01:58:00,
2013-06-19 21:03:00,70.7,53.7,30.01,ESE,113,6.9,8.5,55,0.00,,,0.00,WUHU216HW,2013-06-20 02:03:00,
2013-06-19 21:08:00,70.2,53.3,30.02,ESE,113,4.0,8.5,55,0.00,,,0.00,WUHU216HW,2013-06-20 02:08:00,
2013-06-19 21:13:00,69.7,52.7,30.02,SE,135,5.4,9.2,55,0.00,,,0.00,WUHU216HW,2013-06-20 02:13:00,
2013-06-19 21:18:00,69.5,52.6,30.02,SE,135,9.2,11.4,55,0.00,,,0.00,WUHU216HW,2013-06-20 02:18:00,
2013-06-19 21:23:00,69.1,52.8,30.02,SE,135,11.4,14.3,56,0.00,,,0.00,WUHU216HW,2013-06-20 02:23:00,
2013-06-19 21:28:00,68.8,52.4,30.02,SE,135,12.8,15.7,56,0.00,,,0.00,WUHU216HW,2013-06-20 02:28:00,
2013-06-19 21:33:00,68.4,52.6,30.02,ESE,113,10.5,15.7,57,0.00,,,0.00,WUHU216HW,2013-06-20 02:33:00,
2013-06-19 21:38:00,68.0,52.2,30.02,ESE,113,7.4,15.4,57,0.00,,,0.00,WUHU216HW,2013-06-20 02:38:00,
2013-06-19 21:43:00,67.9,52.5,30.03,SE,135,11.4,14.8,58,0.00,,,0.00,WUHU216HW,2013-06-20 02:43:00,
2013-06-19 21:48:00,67.5,52.2,30.03,SE,135,16.3,16.3,58,0.00,,,0.00,WUHU216HW,2013-06-20 02:48:00,
2013-06-19 21:53:00,67.1,52.4,30.03,SE,135,8.7,17.0,59,0.00,,,0.00,WUHU216HW,2013-06-20 02:53:00,
2013-06-19 21:58:00,67.0,52.2,30.03,SE,135,4.9,17.0,59,0.00,,,0.00,WUHU216HW,2013-06-20 02:58:00,
2013-06-19 22:03:00,66.6,51.8,30.04,ESE,113,5.4,8.7,59,0.00,,,0.00,WUHU216HW,2013-06-20 03:03:00,
2013-06-19 22:08:00,66.4,52.2,30.04,SE,135,6.3,8.3,60,0.00,,,0.00,WUHU216HW,2013-06-20 03:08:00,
2013-06-19 22:13:00,66.1,51.8,30.04,SE,135,6.9,8.3,60,0.00,,,0.00,WUHU216HW,2013-06-20 03:13:00,
2013-06-19 22:18:00,65.9,51.7,30.04,ESE,113,4.7,7.2,60,0.00,,,0.00,WUHU216HW,2013-06-20 03:18:00,
2013-06-19 22:23:00,65.7,51.9,30.04,SE,135,6.3,7.6,61,0.00,,,0.00,WUHU216HW,2013-06-20 03:23:00,
2013-06-19 22:28:00,65.5,51.8,30.04,SE,135,5.8,7.6,61,0.00,,,0.00,WUHU216HW,2013-06-20 03:28:00,
2013-06-19 22:33:00,65.3,51.6,30.04,SSE,158,4.0,6.7,61,0.00,,,0.00,WUHU216HW,2013-06-20 03:33:00,
2013-06-19 22:38:00,65.2,51.4,30.04,SSE,158,9.8,9.8,61,0.00,,,0.00,WUHU216HW,2013-06-20 03:38:00,
2013-06-19 22:43:00,65.0,51.2,30.04,ESE,113,8.5,12.5,61,0.00,,,0.00,WUHU216HW,2013-06-20 03:43:00,
2013-06-19 22:48:00,64.8,51.0,30.04,SE,135,8.5,14.8,61,0.00,,,0.00,WUHU216HW,2013-06-20 03:48:00,
2013-06-19 22:53:00,64.6,50.9,30.04,SSE,158,7.4,15.0,61,0.00,,,0.00,WUHU216HW,2013-06-20 03:53:00,
2013-06-19 22:58:00,64.4,51.1,30.04,SE,135,3.6,15.0,62,0.00,,,0.00,WUHU216HW,2013-06-20 03:58:00,
2013-06-19 23:01:00,64.3,51.0,30.04,SE,135,3.1,15.0,62,0.00,,,0.00,WUHU216HW,2013-06-20 04:01:00,
2013-06-19 23:06:00,64.1,50.8,30.04,SSE,158,4.3,6.3,62,0.00,,,0.00,WUHU216HW,2013-06-20 04:06:00,
2013-06-19 23:11:00,63.7,50.4,30.04,SE,135,3.6,8.5,62,0.00,,,0.00,WUHU216HW,2013-06-20 04:11:00,
2013-06-19 23:16:00,63.7,50.4,30.04,SE,135,4.0,8.5,62,0.00,,,0.00,WUHU216HW,2013-06-20 04:16:00,
2013-06-19 23:21:00,63.5,50.2,30.04,SE,135,4.0,5.4,62,0.00,,,0.00,WUHU216HW,2013-06-20 04:21:00,
2013-06-19 23:26:00,63.5,50.2,30.04,SE,135,11.0,11.0,62,0.00,,,0.00,WUHU216HW,2013-06-20 04:26:00,
2013-06-19 23:31:00,63.4,50.1,30.04,SE,135,3.4,12.3,62,0.00,,,0.00,WUHU216HW,2013-06-20 04:31:00,
2013-06-19 23:36:00,63.4,50.1,30.04,SE,135,5.1,12.3,62,0.00,,,0.00,WUHU216HW,2013-06-20 04:36:00,
2013-06-19 23:41:00,63.0,49.8,30.04,SSE,158,6.3,10.3,62,0.00,,,0.00,WUHU216HW,2013-06-20 04:41:00,
2013-06-19 23:46:00,62.8,49.6,30.05,SE,135,4.9,10.3,62,0.00,,,0.00,WUHU216HW,2013-06-20 04:46:00,
2013-06-19 23:51:00,62.5,49.2,30.05,SSE,158,4.0,9.6,62,0.00,,,0.00,WUHU216HW,2013-06-20 04:51:00,
2013-06-19 23:56:00,62.1,49.3,30.05,ESE,113,6.3,8.5,63,0.00,,,0.00,WUHU216HW,2013-06-20 04:56:00,